Time;durP1;ratioP1;P1;durP2;ratioP2;P2;SDS_P1;SDS_P2;PMS_P1;PMS_P2;Temp;Humidity;BMP_temperature;BMP_pressure;BME280_temperature;BME280_humidity;BME280_pressure;Samples;Min_cycle;Max_cycle;Signal;HPM_P1;HPM_P2
2022/03/28 00:00:40;;;;;;;1.55;0.65;;;19.60;53.90;;;;;;4445652;32;20082;-69
2022/03/28 00:03:06;;;;;;;1.38;0.65;;;19.60;53.90;;;;;;4432196;32;20085;-68
2022/03/28 00:05:32;;;;;;;1.63;0.50;;;19.60;53.90;;;;;;4445817;32;20067;-68
2022/03/28 00:07:58;;;;;;;1.48;0.70;;;19.60;53.90;;;;;;4445735;32;20100;-68
2022/03/28 00:10:24;;;;;;;3.53;0.73;;;19.60;53.90;;;;;;4445476;32;20492;-68
2022/03/28 00:12:50;;;;;;;1.30;0.60;;;19.60;53.80;;;;;;4445146;32;20093;-68
2022/03/28 00:15:16;;;;;;;2.20;0.68;;;19.60;53.90;;;;;;4445351;32;20121;-68
2022/03/28 00:17:43;;;;;;;1.73;0.52;;;19.60;53.90;;;;;;4445130;32;20156;-68
2022/03/28 00:20:11;;;;;;;1.50;0.60;;;19.60;53.90;;;;;;4445531;32;20081;-68
2022/03/28 00:22:41;;;;;;;1.63;0.35;;;19.60;53.90;;;;;;4445644;32;20326;-68
2022/03/28 00:25:09;;;;;;;1.90;0.80;;;19.60;53.90;;;;;;4445706;32;20113;-68
2022/03/28 00:27:34;;;;;;;1.10;0.57;;;19.50;53.80;;;;;;4431376;32;20109;-68
2022/03/28 00:30:00;;;;;;;2.25;0.50;;;19.50;53.80;;;;;;4445572;32;20080;-68
2022/03/28 00:32:26;;;;;;;2.55;0.68;;;19.50;53.80;;;;;;4445400;32;20409;-69
2022/03/28 00:34:53;;;;;;;1.48;0.50;;;19.50;53.80;;;;;;4445384;32;20082;-68
2022/03/28 00:37:19;;;;;;;1.40;0.52;;;19.50;53.80;;;;;;4445279;32;20100;-68
2022/03/28 00:39:45;;;;;;;1.92;0.57;;;19.50;53.80;;;;;;4445120;32;20090;-68
2022/03/28 00:42:12;;;;;;;2.10;0.73;;;19.50;53.80;;;;;;4445156;32;20129;-68
2022/03/28 00:44:38;;;;;;;1.45;0.43;;;19.50;53.80;;;;;;4431279;32;20100;-68
2022/03/28 00:47:04;;;;;;;2.50;0.50;;;19.50;53.80;;;;;;4445260;32;20090;-68
2022/03/28 00:49:31;;;;;;;1.20;0.45;;;19.40;53.90;;;;;;4445385;32;20128;-68
2022/03/28 00:51:58;;;;;;;0.93;0.50;;;19.50;53.90;;;;;;4444947;32;20110;-68
2022/03/28 00:54:24;;;;;;;1.48;0.50;;;19.40;53.80;;;;;;4445467;32;20627;-68
2022/03/28 00:56:50;;;;;;;2.22;0.55;;;19.40;53.90;;;;;;4445123;32;20490;-68
2022/03/28 00:59:17;;;;;;;0.98;0.40;;;19.40;53.90;;;;;;4445084;32;20153;-68
2022/03/28 01:01:46;;;;;;;1.42;0.55;;;19.40;53.90;;;;;;4418364;32;20098;-68
2022/03/28 01:04:12;;;;;;;1.27;0.50;;;19.40;53.90;;;;;;4445163;32;20078;-68
2022/03/28 01:06:38;;;;;;;1.85;0.60;;;19.40;53.80;;;;;;4445046;32;20219;-68
2022/03/28 01:09:05;;;;;;;2.60;0.52;;;19.40;53.90;;;;;;4444973;32;20082;-68
2022/03/28 01:11:34;;;;;;;1.38;0.50;;;19.40;54.80;;;;;;4444511;32;20085;-68
2022/03/28 01:14:01;;;;;;;1.30;0.50;;;19.40;53.90;;;;;;4430936;32;20088;-68
2022/03/28 01:16:31;;;;;;;1.10;0.60;;;19.40;53.90;;;;;;4444979;32;20120;-68
2022/03/28 01:18:57;;;;;;;1.23;0.40;;;19.40;53.90;;;;;;4441289;32;20128;-68
2022/03/28 01:21:22;;;;;;;0.90;0.57;;;19.40;53.90;;;;;;4443833;32;20500;-68
2022/03/28 01:23:48;;;;;;;1.00;0.60;;;19.40;53.90;;;;;;4445864;32;20088;-68
2022/03/28 01:26:15;;;;;;;1.20;0.60;;;19.40;53.90;;;;;;4448065;32;20081;-69
2022/03/28 01:28:41;;;;;;;1.05;0.60;;;19.30;53.80;;;;;;4446938;32;20159;-68
2022/03/28 01:31:08;;;;;;;2.05;0.60;;;19.30;53.80;;;;;;4447221;32;20094;-68
2022/03/28 01:33:35;;;;;;;1.75;0.73;;;19.30;53.80;;;;;;4447989;32;20097;-68
2022/03/28 01:36:01;;;;;;;1.15;0.30;;;19.30;53.90;;;;;;4447691;32;20212;-68
2022/03/28 01:38:27;;;;;;;1.42;0.57;;;19.30;53.90;;;;;;4447612;32;20180;-68
2022/03/28 01:40:53;;;;;;;0.95;0.60;;;19.30;53.80;;;;;;4446867;32;20062;-68
2022/03/28 01:43:21;;;;;;;1.60;0.60;;;19.30;53.90;;;;;;4448068;32;20207;-68
2022/03/28 01:45:47;;;;;;;1.95;0.60;;;19.30;53.90;;;;;;4447827;32;20606;-68
2022/03/28 01:48:13;;;;;;;2.10;0.60;;;19.30;53.90;;;;;;4446589;32;20094;-68
2022/03/28 01:50:40;;;;;;;2.50;0.60;;;19.20;53.80;;;;;;4448187;32;20089;-68
2022/03/28 01:53:06;;;;;;;0.60;0.43;;;19.20;53.80;;;;;;4447896;32;20408;-68
2022/03/28 01:55:33;;;;;;;1.80;0.50;;;19.20;53.80;;;;;;4447653;32;20082;-68
2022/03/28 01:57:58;;;;;;;0.65;0.30;;;19.20;53.80;;;;;;4447635;32;20074;-68
2022/03/28 02:00:28;;;;;;;2.28;0.50;;;19.20;53.80;;;;;;4446552;32;20058;-68
2022/03/28 02:02:55;;;;;;;3.33;0.60;;;19.20;53.80;;;;;;4447810;32;20094;-68
2022/03/28 02:05:21;;;;;;;0.77;0.30;;;19.20;53.80;;;;;;4446574;32;20082;-68
2022/03/28 02:07:48;;;;;;;1.45;0.50;;;19.20;53.80;;;;;;4447459;32;20661;-68
2022/03/28 02:10:19;;;;;;;1.15;0.45;;;19.20;53.90;;;;;;4447445;32;20496;-68
2022/03/28 02:12:46;;;;;;;0.93;0.50;;;19.10;53.80;;;;;;4446367;32;20093;-68
2022/03/28 02:15:12;;;;;;;2.33;0.60;;;19.20;53.80;;;;;;4447383;32;20089;-68
2022/03/28 02:17:39;;;;;;;1.00;0.47;;;19.20;53.80;;;;;;4445728;32;20090;-68
2022/03/28 02:20:08;;;;;;;1.27;0.77;;;19.10;53.80;;;;;;4447658;32;20097;-68
2022/03/28 02:22:35;;;;;;;1.33;0.50;;;19.20;53.80;;;;;;4447337;32;20215;-68
2022/03/28 02:25:02;;;;;;;0.82;0.35;;;19.20;53.80;;;;;;4447294;32;20075;-68
2022/03/28 02:27:28;;;;;;;1.25;0.50;;;19.20;53.80;;;;;;4447409;32;20070;-69
2022/03/28 02:29:54;;;;;;;2.20;0.70;;;19.10;53.70;;;;;;4447145;32;20156;-68
2022/03/28 02:32:19;;;;;;;0.90;0.40;;;19.10;53.70;;;;;;4447153;32;20085;-68
2022/03/28 02:34:45;;;;;;;0.57;0.20;;;19.10;53.80;;;;;;4446252;32;20085;-68
2022/03/28 02:37:11;;;;;;;1.80;0.57;;;19.10;53.70;;;;;;4445980;32;20066;-68
2022/03/28 02:39:37;;;;;;;1.00;0.40;;;19.10;53.70;;;;;;4446056;32;20257;-68
2022/03/28 02:42:04;;;;;;;2.17;0.70;;;19.10;53.80;;;;;;4446912;32;20078;-68
2022/03/28 02:44:30;;;;;;;1.85;0.50;;;19.10;53.70;;;;;;4447155;32;20526;-68
2022/03/28 02:46:56;;;;;;;1.50;0.50;;;19.10;53.70;;;;;;4446099;32;20216;-68
2022/03/28 02:49:22;;;;;;;1.77;0.47;;;19.00;53.70;;;;;;4445696;32;20066;-68
2022/03/28 02:51:49;;;;;;;0.60;0.30;;;19.10;53.70;;;;;;4447079;32;20491;-68
2022/03/28 02:54:15;;;;;;;0.77;0.32;;;19.10;53.70;;;;;;4446459;32;20170;-68
2022/03/28 02:56:41;;;;;;;1.33;0.30;;;19.00;53.70;;;;;;4446781;32;20155;-68
2022/03/28 02:59:07;;;;;;;1.90;0.50;;;19.00;53.70;;;;;;4447039;32;20109;-68
2022/03/28 03:01:35;;;;;;;2.00;0.32;;;19.00;53.60;;;;;;4446790;32;20164;-68
2022/03/28 03:04:01;;;;;;;0.85;0.40;;;19.00;53.60;;;;;;4446266;32;20082;-68
2022/03/28 03:06:27;;;;;;;0.82;0.22;;;19.00;53.60;;;;;;4446777;32;20114;-68
2022/03/28 03:08:53;;;;;;;0.98;0.40;;;19.00;53.60;;;;;;4446363;32;20077;-68
2022/03/28 03:11:19;;;;;;;0.73;0.30;;;19.00;53.60;;;;;;4446127;32;20081;-68
2022/03/28 03:13:49;;;;;;;0.38;0.30;;;19.00;53.60;;;;;;4446372;32;20434;-68
2022/03/28 03:16:16;;;;;;;0.57;0.30;;;19.00;53.60;;;;;;4446581;32;20097;-68
2022/03/28 03:18:42;;;;;;;0.65;0.30;;;19.00;53.60;;;;;;4445120;32;20171;-68
2022/03/28 03:21:08;;;;;;;1.10;0.38;;;19.00;53.60;;;;;;4446297;32;20114;-68
2022/03/28 03:23:34;;;;;;;0.73;0.40;;;19.00;53.60;;;;;;4446597;32;20213;-68
2022/03/28 03:26:00;;;;;;;1.27;0.50;;;18.90;53.50;;;;;;4446573;32;20160;-68
2022/03/28 03:28:27;;;;;;;0.85;0.32;;;18.90;53.50;;;;;;4446248;32;20058;-68
2022/03/28 03:30:53;;;;;;;1.92;0.57;;;18.90;53.50;;;;;;4446470;32;20096;-68
2022/03/28 03:33:18;;;;;;;0.63;0.40;;;18.90;53.50;;;;;;4444868;32;20404;-68
2022/03/28 03:35:44;;;;;;;0.73;0.40;;;18.90;53.50;;;;;;4446388;32;20113;-68
2022/03/28 03:38:10;;;;;;;0.57;0.30;;;18.90;53.50;;;;;;4446126;32;20431;-69
2022/03/28 03:40:37;;;;;;;1.55;0.40;;;18.90;53.50;;;;;;4446100;32;20082;-68
2022/03/28 03:43:02;;;;;;;0.60;0.30;;;18.90;53.50;;;;;;4445821;32;20108;-68
2022/03/28 03:45:28;;;;;;;0.40;0.25;;;18.90;53.50;;;;;;4445083;32;20082;-68
2022/03/28 03:47:54;;;;;;;1.05;0.32;;;18.80;53.40;;;;;;4445771;32;20124;-68
2022/03/28 03:50:20;;;;;;;0.68;0.15;;;18.80;53.40;;;;;;4444810;32;20427;-68
2022/03/28 03:52:47;;;;;;;0.80;0.22;;;18.90;53.50;;;;;;4446190;32;20099;-68
2022/03/28 03:55:13;;;;;;;0.85;0.30;;;18.80;53.50;;;;;;4445644;32;20088;-68
2022/03/28 03:57:39;;;;;;;0.52;0.32;;;18.80;53.40;;;;;;4445104;32;20066;-68
2022/03/28 04:00:06;;;;;;;0.70;0.30;;;18.80;53.40;;;;;;4445499;32;20396;-68
2022/03/28 04:02:31;;;;;;;0.47;0.20;;;18.80;53.40;;;;;;4445801;32;20240;-68
2022/03/28 04:04:57;;;;;;;0.63;0.30;;;18.80;53.40;;;;;;4445451;32;20114;-68
2022/03/28 04:07:23;;;;;;;2.33;0.35;;;18.80;53.40;;;;;;4445896;32;20070;-68
2022/03/28 04:09:49;;;;;;;0.30;0.20;;;18.80;53.40;;;;;;4445641;32;20076;-68
2022/03/28 04:12:15;;;;;;;0.75;0.30;;;18.80;53.40;;;;;;4445592;32;20082;-68
2022/03/28 04:14:41;;;;;;;0.55;0.30;;;18.80;53.40;;;;;;4445883;32;20065;-68
2022/03/28 04:17:07;;;;;;;0.35;0.20;;;18.80;53.40;;;;;;4445645;32;20208;-68
2022/03/28 04:19:32;;;;;;;0.35;0.20;;;18.80;53.40;;;;;;4445360;32;20114;-68
2022/03/28 04:21:58;;;;;;;0.55;0.32;;;18.80;53.40;;;;;;4445267;32;20527;-68
2022/03/28 04:24:24;;;;;;;0.70;0.30;;;18.70;53.40;;;;;;4431453;32;20058;-68
2022/03/28 04:26:50;;;;;;;0.88;0.30;;;18.80;53.40;;;;;;4445438;32;20082;-68
2022/03/28 04:29:16;;;;;;;0.75;0.30;;;18.80;53.40;;;;;;4445176;32;20081;-68
2022/03/28 04:31:42;;;;;;;0.77;0.38;;;18.80;53.40;;;;;;4445383;32;20074;-69
2022/03/28 04:34:09;;;;;;;0.77;0.43;;;18.70;53.40;;;;;;4445613;32;20102;-68
2022/03/28 04:36:37;;;;;;;0.60;0.20;;;18.70;53.30;;;;;;4431790;32;20066;-68
2022/03/28 04:39:05;;;;;;;0.63;0.30;;;18.70;53.40;;;;;;4445343;32;20157;-68
2022/03/28 04:41:31;;;;;;;0.63;0.38;;;18.70;53.40;;;;;;4445213;32;20613;-68
2022/03/28 04:43:57;;;;;;;0.25;0.20;;;18.70;53.40;;;;;;4431709;32;20129;-68
2022/03/28 04:46:23;;;;;;;0.30;0.20;;;18.70;53.40;;;;;;4445514;32;20086;-68
2022/03/28 04:48:49;;;;;;;0.40;0.25;;;18.70;53.40;;;;;;4444987;32;20070;-68
2022/03/28 04:51:16;;;;;;;0.60;0.30;;;18.70;53.40;;;;;;4431308;32;20407;-68
2022/03/28 04:53:42;;;;;;;0.60;0.20;;;18.70;53.40;;;;;;4445253;32;20078;-68
2022/03/28 04:56:08;;;;;;;0.60;0.20;;;18.60;53.40;;;;;;4431377;32;20077;-68
2022/03/28 04:58:34;;;;;;;0.60;0.30;;;18.60;53.40;;;;;;4444427;32;20155;-68
2022/03/28 05:01:00;;;;;;;0.50;0.20;;;18.70;53.50;;;;;;4445110;32;20050;-68
2022/03/28 05:03:26;;;;;;;0.45;0.30;;;18.60;53.40;;;;;;4444853;32;20079;-68
2022/03/28 05:05:52;;;;;;;0.85;0.40;;;18.60;53.40;;;;;;4445267;32;20156;-68
2022/03/28 05:08:19;;;;;;;0.40;0.20;;;18.60;53.40;;;;;;4445313;32;20124;-68
2022/03/28 05:10:45;;;;;;;1.10;0.30;;;18.60;53.40;;;;;;4444842;32;20090;-68
2022/03/28 05:13:11;;;;;;;0.95;0.30;;;18.60;53.40;;;;;;4445107;32;20078;-68
2022/03/28 05:15:37;;;;;;;0.65;0.40;;;18.60;53.40;;;;;;4445066;32;20148;-68
2022/03/28 05:18:03;;;;;;;0.63;0.30;;;18.60;53.40;;;;;;4433269;32;20074;-68
2022/03/28 05:20:29;;;;;;;0.52;0.30;;;18.60;53.30;;;;;;4445036;32;20085;-68
2022/03/28 05:22:55;;;;;;;0.70;0.30;;;18.60;53.40;;;;;;4444945;32;20074;-68
2022/03/28 05:25:21;;;;;;;0.40;0.40;;;18.60;53.40;;;;;;4444711;32;20147;-68
2022/03/28 05:27:47;;;;;;;0.38;0.20;;;18.60;53.40;;;;;;4444924;32;20133;-68
2022/03/28 05:30:14;;;;;;;0.20;0.20;;;18.60;53.40;;;;;;4444550;32;20421;-68
2022/03/28 05:32:42;;;;;;;0.20;0.13;;;18.60;53.40;;;;;;4445367;32;20100;-68
2022/03/28 05:35:09;;;;;;;0.70;0.47;;;18.60;53.40;;;;;;4445062;32;20255;-68
2022/03/28 05:37:35;;;;;;;1.17;0.30;;;18.60;53.40;;;;;;4444804;32;20220;-68
2022/03/28 05:40:03;;;;;;;0.43;0.20;;;18.50;53.30;;;;;;4443977;32;20232;-68
2022/03/28 05:42:29;;;;;;;0.50;0.30;;;18.50;53.40;;;;;;4444960;32;20512;-68
2022/03/28 05:44:55;;;;;;;0.60;0.20;;;18.50;53.40;;;;;;4444511;32;20070;-68
2022/03/28 05:47:21;;;;;;;0.40;0.30;;;18.50;53.40;;;;;;4444798;32;20160;-68
2022/03/28 05:49:46;;;;;;;0.47;0.20;;;18.50;53.40;;;;;;4443890;32;20618;-68
2022/03/28 05:52:12;;;;;;;0.80;0.22;;;18.50;53.40;;;;;;4444447;32;20090;-68
2022/03/28 05:54:39;;;;;;;0.38;0.28;;;18.50;53.40;;;;;;4444486;32;20116;-68
2022/03/28 05:57:05;;;;;;;0.50;0.30;;;18.50;53.40;;;;;;4444434;32;20074;-68
2022/03/28 05:59:32;;;;;;;0.90;0.20;;;18.50;53.40;;;;;;4444407;32;20201;-68
2022/03/28 06:01:58;;;;;;;0.98;0.40;;;18.50;53.40;;;;;;4444850;32;20113;-68
2022/03/28 06:04:23;;;;;;;0.65;0.28;;;18.50;53.40;;;;;;4444380;32;20121;-68
2022/03/28 06:06:49;;;;;;;0.57;0.20;;;18.50;53.40;;;;;;4444865;32;20132;-68
2022/03/28 06:09:15;;;;;;;0.65;0.20;;;18.50;53.40;;;;;;4444480;32;20074;-68
2022/03/28 06:11:41;;;;;;;0.82;0.32;;;18.40;53.40;;;;;;4447440;32;20066;-68
2022/03/28 06:14:09;;;;;;;0.68;0.40;;;18.50;53.40;;;;;;4447420;32;20077;-68
2022/03/28 06:16:35;;;;;;;0.80;0.20;;;18.40;53.40;;;;;;4447445;32;20084;-68
2022/03/28 06:19:01;;;;;;;0.40;0.22;;;18.40;53.40;;;;;;4447391;32;20074;-68
2022/03/28 06:21:30;;;;;;;1.23;0.38;;;18.40;53.40;;;;;;4447102;32;20066;-68
2022/03/28 06:23:57;;;;;;;0.60;0.28;;;18.40;53.40;;;;;;4447104;32;20078;-68
2022/03/28 06:26:23;;;;;;;1.35;0.43;;;18.40;53.40;;;;;;4433122;32;20078;-68
2022/03/28 06:28:49;;;;;;;1.70;0.32;;;18.40;53.40;;;;;;4447257;32;20081;-68
2022/03/28 06:31:15;;;;;;;0.20;0.20;;;18.40;53.40;;;;;;4433538;32;20133;-68
2022/03/28 06:33:41;;;;;;;1.48;0.10;;;18.40;53.40;;;;;;4447012;32;20510;-68
2022/03/28 06:36:08;;;;;;;0.60;0.30;;;18.40;53.40;;;;;;4447172;32;20082;-68
2022/03/28 06:38:34;;;;;;;0.57;0.40;;;18.40;53.40;;;;;;4447131;32;20077;-68
2022/03/28 06:40:59;;;;;;;0.40;0.30;;;18.40;53.40;;;;;;4446954;32;20081;-68
2022/03/28 06:43:25;;;;;;;0.63;0.20;;;18.40;53.40;;;;;;4447283;32;20585;-68
2022/03/28 06:45:51;;;;;;;0.77;0.32;;;18.40;53.40;;;;;;4446767;32;20408;-68
2022/03/28 06:48:19;;;;;;;0.40;0.30;;;18.40;53.40;;;;;;4447160;32;20129;-68
2022/03/28 06:50:45;;;;;;;0.40;0.30;;;18.40;53.40;;;;;;4446750;32;20471;-69
2022/03/28 06:53:11;;;;;;;0.32;0.20;;;18.40;53.40;;;;;;4447069;32;20081;-68
2022/03/28 06:55:37;;;;;;;2.22;0.38;;;18.40;53.40;;;;;;4447061;32;20106;-68
2022/03/28 06:58:03;;;;;;;0.30;0.25;;;18.40;53.40;;;;;;4432909;32;20058;-68
2022/03/28 07:00:29;;;;;;;0.80;0.30;;;18.30;53.40;;;;;;4447005;32;20074;-67
2022/03/28 07:02:55;;;;;;;1.08;0.45;;;18.30;53.40;;;;;;4446772;32;20492;-67
2022/03/28 07:05:21;;;;;;;0.75;0.40;;;18.30;53.30;;;;;;4446485;32;20081;-68
2022/03/28 07:07:48;;;;;;;0.75;0.40;;;18.30;53.40;;;;;;4446421;32;20506;-68
2022/03/28 07:10:19;;;;;;;1.95;0.50;;;18.30;53.40;;;;;;4446730;32;20385;-68
2022/03/28 07:12:45;;;;;;;1.13;0.40;;;18.30;53.40;;;;;;4432909;32;20070;-68
2022/03/28 07:15:12;;;;;;;0.65;0.20;;;18.30;53.40;;;;;;4432839;32;20097;-69
2022/03/28 07:17:57;;;;;;;0.75;0.70;;;18.30;53.40;;;;;;4446336;32;20152;-68
2022/03/28 07:20:28;;;;;;;1.65;1.20;;;18.30;53.30;;;;;;4444751;32;20093;-69
2022/03/28 07:22:55;;;;;;;2.80;2.00;;;18.30;53.00;;;;;;4431976;32;20070;-69
2022/03/28 07:25:22;;;;;;;6.10;2.55;;;18.20;52.40;;;;;;4446302;32;20066;-69
2022/03/28 07:27:49;;;;;;;5.28;2.30;;;18.20;51.90;;;;;;4446038;32;20129;-68
2022/03/28 07:30:15;;;;;;;2.78;1.90;;;18.20;52.20;;;;;;4432055;32;20523;-68
2022/03/28 07:32:41;;;;;;;6.57;1.92;;;18.20;52.70;;;;;;4446508;32;20144;-68
2022/03/28 07:35:08;;;;;;;4.53;2.08;;;18.20;53.10;;;;;;4446204;32;20141;-68
2022/03/28 07:37:37;;;;;;;7.18;2.15;;;18.20;53.40;;;;;;4446304;32;20160;-68
2022/03/28 07:40:05;;;;;;;4.53;1.98;;;18.20;53.50;;;;;;4432626;32;20086;-68
2022/03/28 07:42:32;;;;;;;3.75;1.90;;;18.20;53.70;;;;;;4445877;32;20419;-68
2022/03/28 07:44:58;;;;;;;2.35;1.60;;;18.20;53.70;;;;;;4446060;32;20455;-68
2022/03/28 07:47:27;;;;;;;2.58;1.65;;;18.20;53.70;;;;;;4445744;32;20182;-69
2022/03/28 07:49:54;;;;;;;4.15;1.90;;;18.20;53.70;;;;;;4445954;32;20092;-69
2022/03/28 07:52:21;;;;;;;4.15;1.70;;;18.20;54.70;;;;;;4445911;32;20568;-69
2022/03/28 07:54:48;;;;;;;2.33;1.60;;;18.20;54.00;;;;;;4431816;32;20129;-69
2022/03/28 07:57:16;;;;;;;4.22;1.90;;;18.20;54.00;;;;;;4445879;32;20428;-68
2022/03/28 07:59:43;;;;;;;1.98;1.48;;;18.20;54.00;;;;;;4445966;32;20078;-68
2022/03/28 08:02:12;;;;;;;3.28;1.55;;;18.20;54.00;;;;;;4445806;32;20086;-68
2022/03/28 08:04:38;;;;;;;1.67;1.30;;;18.20;54.00;;;;;;4446204;32;20633;-68
2022/03/28 08:07:08;;;;;;;4.15;1.60;;;18.20;54.00;;;;;;4446026;32;20078;-69
2022/03/28 08:09:38;;;;;;;2.55;1.17;;;18.20;54.00;;;;;;4445666;32;20199;-69
2022/03/28 08:12:05;;;;;;;2.28;1.60;;;18.20;54.10;;;;;;4445347;32;20213;-69
2022/03/28 08:14:32;;;;;;;2.40;1.30;;;18.20;54.10;;;;;;4445731;32;20066;-68
2022/03/28 08:16:59;;;;;;;2.35;1.50;;;18.20;54.30;;;;;;4445640;32;20132;-68
2022/03/28 08:19:26;;;;;;;2.72;1.70;;;18.20;54.20;;;;;;4445423;32;20243;-69
2022/03/28 08:21:52;;;;;;;2.13;1.50;;;18.10;54.20;;;;;;4445859;32;20074;-69
2022/03/28 08:24:18;;;;;;;3.25;1.30;;;18.20;54.30;;;;;;4445598;32;20090;-69
2022/03/28 08:26:44;;;;;;;7.10;1.50;;;18.20;54.30;;;;;;4445627;32;20515;-68
2022/03/28 08:29:10;;;;;;;3.95;1.50;;;18.20;54.30;;;;;;4431391;32;20091;-68
2022/03/28 08:31:36;;;;;;;2.42;1.20;;;18.20;54.10;;;;;;4431577;32;20583;-69
2022/03/28 08:34:02;;;;;;;3.40;1.25;;;18.30;54.10;;;;;;4445526;32;20086;-69
2022/03/28 08:36:28;;;;;;;1.67;1.20;;;18.40;54.10;;;;;;4431736;32;20192;-69
2022/03/28 08:38:54;;;;;;;3.20;1.30;;;18.50;53.90;;;;;;4445578;32;20054;-69
2022/03/28 08:41:22;;;;;;;3.08;1.10;;;18.60;53.60;;;;;;4445257;32;20080;-69
2022/03/28 08:43:48;;;;;;;1.55;1.20;;;18.70;53.40;;;;;;4445080;32;20145;-70
2022/03/28 08:46:16;;;;;;;4.10;1.20;;;18.80;53.10;;;;;;4444908;32;20208;-69
2022/03/28 08:48:42;;;;;;;2.60;1.23;;;18.90;52.90;;;;;;4445200;32;20078;-69
2022/03/28 08:51:10;;;;;;;2.70;1.00;;;19.00;52.70;;;;;;4445153;32;20471;-69
2022/03/28 08:53:36;;;;;;;2.38;1.42;;;19.10;52.50;;;;;;4444774;32;20082;-69
2022/03/28 08:56:03;;;;;;;2.28;1.13;;;19.20;52.30;;;;;;4445283;32;20062;-69
2022/03/28 08:58:29;;;;;;;2.92;1.20;;;19.30;52.20;;;;;;4445073;32;20173;-70
2022/03/28 09:00:55;;;;;;;1.73;1.02;;;19.30;52.00;;;;;;4444952;32;20082;-69
2022/03/28 09:03:47;;;;;;;1.52;0.90;;;19.40;52.00;;;;;;4444937;32;20059;-69
2022/03/28 09:06:34;;;;;;;2.65;0.90;;;19.50;51.90;;;;;;4445250;32;20136;-69
2022/03/28 09:09:34;;;;;;;3.00;1.10;;;19.50;51.80;;;;;;4444990;32;20404;-69
2022/03/28 09:12:08;;;;;;;1.77;0.90;;;19.60;51.70;;;;;;4419316;32;20570;-69
2022/03/28 09:14:40;;;;;;;1.50;0.70;;;19.60;51.60;;;;;;4445359;32;20070;-69
2022/03/28 09:17:09;;;;;;;3.08;0.80;;;19.60;51.50;;;;;;4444922;32;20069;-69
2022/03/28 09:19:55;;;;;;;1.27;0.93;;;19.70;51.50;;;;;;4435383;32;20085;-69
2022/03/28 09:22:27;;;;;;;2.88;1.02;;;19.70;51.50;;;;;;4444917;32;20074;-68
2022/03/28 09:24:59;;;;;;;3.03;1.10;;;19.70;51.50;;;;;;4444976;32;20070;-69
2022/03/28 09:27:30;;;;;;;2.20;1.08;;;19.70;51.50;;;;;;4445385;32;20097;-69
2022/03/28 09:30:01;;;;;;;2.47;0.93;;;19.80;51.60;;;;;;4444934;32;20531;-69
2022/03/28 09:32:44;;;;;;;3.17;1.27;;;19.80;51.70;;;;;;4444918;32;20082;-69
2022/03/28 09:35:19;;;;;;;1.53;0.90;;;19.80;51.90;;;;;;4445196;32;20082;-69
2022/03/28 09:37:51;;;;;;;4.20;1.20;;;19.80;52.00;;;;;;4444725;32;20211;-69
2022/03/28 09:40:24;;;;;;;2.35;1.05;;;19.80;52.10;;;;;;4444773;32;20163;-69
2022/03/28 09:42:51;;;;;;;1.00;0.70;;;19.80;52.20;;;;;;4444541;32;20089;-68
2022/03/28 09:45:26;;;;;;;2.30;0.82;;;19.90;52.20;;;;;;4446595;32;20113;-68
2022/03/28 09:48:03;;;;;;;1.88;0.90;;;19.90;52.20;;;;;;4448045;32;20096;-68
2022/03/28 09:50:41;;;;;;;2.70;0.88;;;19.90;52.20;;;;;;4447070;32;20208;-68
2022/03/28 09:53:20;;;;;;;1.20;0.77;;;19.90;52.20;;;;;;4447833;32;20479;-70
2022/03/28 09:55:57;;;;;;;2.65;1.00;;;19.90;52.40;;;;;;4447635;32;20112;-69
2022/03/28 09:58:58;;;;;;;1.60;0.80;;;19.90;52.40;;;;;;4447785;32;20109;-68
2022/03/28 10:01:33;;;;;;;2.10;1.10;;;19.90;52.50;;;;;;4436842;32;20219;-68
2022/03/28 10:04:05;;;;;;;;;;;19.90;52.50;;;;;;4448330;32;20117;-68
2022/03/28 10:06:32;;;;;;;1.40;0.80;;;19.80;52.50;;;;;;4447640;32;20075;-68
2022/03/28 10:08:58;;;;;;;4.60;1.25;;;19.90;52.60;;;;;;4447381;32;20532;-68
2022/03/28 10:11:29;;;;;;;1.98;0.82;;;19.90;52.60;;;;;;4447408;32;20161;-68
2022/03/28 10:13:55;;;;;;;2.22;1.02;;;19.90;52.70;;;;;;4447359;32;20519;-68
2022/03/28 10:16:21;;;;;;;1.70;1.00;;;19.90;52.70;;;;;;4447638;32;20236;-68
2022/03/28 10:18:50;;;;;;;3.17;1.05;;;19.90;52.80;;;;;;4447561;32;20070;-69
2022/03/28 10:21:19;;;;;;;1.90;0.98;;;19.90;52.80;;;;;;4447441;32;20089;-68
2022/03/28 10:23:59;;;;;;;2.92;0.90;;;19.90;52.80;;;;;;4447247;32;20100;-69
2022/03/28 10:26:30;;;;;;;6.72;1.15;;;19.90;52.90;;;;;;4447505;32;20132;-69
2022/03/28 10:29:00;;;;;;;2.28;1.20;;;19.90;52.90;;;;;;4447377;32;20622;-68
2022/03/28 10:31:26;;;;;;;1.52;1.10;;;19.90;52.90;;;;;;4447148;32;20086;-68
2022/03/28 10:33:54;;;;;;;2.15;1.05;;;19.90;52.90;;;;;;4447106;32;20074;-68
2022/03/28 10:36:24;;;;;;;2.05;0.98;;;19.90;53.00;;;;;;4447373;32;20102;-68
2022/03/28 10:38:51;;;;;;;1.52;0.90;;;19.90;53.00;;;;;;4433066;32;20232;-68
2022/03/28 10:41:19;;;;;;;2.15;1.02;;;19.90;53.10;;;;;;4446925;32;20161;-69
2022/03/28 10:43:47;;;;;;;2.45;0.90;;;19.90;53.10;;;;;;4447162;32;20089;-68
2022/03/28 10:46:14;;;;;;;2.22;0.85;;;19.90;53.10;;;;;;4446681;32;20527;-68
2022/03/28 10:48:53;;;;;;;2.30;1.10;;;19.90;53.10;;;;;;4446855;32;20073;-68
2022/03/28 10:51:30;;;;;;;4.13;0.90;;;19.90;53.20;;;;;;4446928;32;20086;-68
2022/03/28 10:54:05;;;;;;;4.82;1.23;;;20.00;53.30;;;;;;4446881;32;20066;-68
2022/03/28 10:56:35;;;;;;;4.10;0.98;;;20.00;53.30;;;;;;4447036;32;20120;-68
2022/03/28 10:59:10;;;;;;;1.15;0.90;;;20.00;53.30;;;;;;4446593;32;20074;-68
2022/03/28 11:01:37;;;;;;;1.10;0.80;;;20.00;53.20;;;;;;4432854;32;20259;-69
2022/03/28 11:04:15;;;;;;;2.13;0.90;;;20.00;53.20;;;;;;4446830;32;20268;-69
2022/03/28 11:06:53;;;;;;;2.25;1.10;;;20.00;53.30;;;;;;4446809;32;20125;-68
2022/03/28 11:09:40;;;;;;;1.90;0.98;;;20.00;53.30;;;;;;4446450;32;20487;-69
2022/03/28 11:12:10;;;;;;;1.35;0.90;;;19.90;53.20;;;;;;4446532;32;20204;-68
2022/03/28 11:14:45;;;;;;;1.63;0.88;;;20.00;53.20;;;;;;4446931;32;20133;-68
2022/03/28 11:17:35;;;;;;;3.00;0.90;;;20.00;53.20;;;;;;4446473;32;20515;-68
2022/03/28 11:20:14;;;;;;;2.33;0.80;;;19.90;53.20;;;;;;4440061;32;20515;-72
2022/03/28 11:22:49;;;;;;;2.38;0.93;;;19.90;53.30;;;;;;4446644;32;20500;-68
2022/03/28 11:25:27;;;;;;;1.58;0.90;;;19.90;53.30;;;;;;4447053;32;20507;-68
2022/03/28 11:28:11;;;;;;;1.83;0.80;;;19.90;53.20;;;;;;4446402;32;20532;-68
2022/03/28 11:31:08;;;;;;;2.10;0.98;;;20.00;53.20;;;;;;4446412;32;20220;-68
2022/03/28 11:33:41;;;;;;;2.58;0.90;;;19.90;53.20;;;;;;4432028;32;20074;-68
2022/03/28 11:36:08;;;;;;;2.83;1.25;;;19.90;53.20;;;;;;4447095;32;20082;-68
2022/03/28 11:38:41;;;;;;;3.38;1.20;;;19.90;53.20;;;;;;4446178;32;20133;-72
2022/03/28 11:41:08;;;;;;;3.87;1.10;;;19.90;53.20;;;;;;4446262;32;20078;-68
2022/03/28 11:43:40;;;;;;;1.52;1.00;;;19.90;53.20;;;;;;4446175;32;20078;-68
2022/03/28 11:46:18;;;;;;;1.92;0.90;;;19.90;53.20;;;;;;4432240;32;20096;-68
2022/03/28 11:49:11;;;;;;;6.80;1.20;;;19.90;53.30;;;;;;4446124;32;20066;-67
2022/03/28 11:51:40;;;;;;;2.75;1.10;;;19.90;53.30;;;;;;4444364;32;20078;-68
2022/03/28 11:54:15;;;;;;;1.63;0.90;;;19.90;53.30;;;;;;4445780;32;20094;-68
2022/03/28 11:59:27;;;;;;;3.63;1.60;;;19.90;53.20;;;;;;4446287;32;20170;-66
2022/03/28 12:02:02;;;;;;;8.93;2.15;;;19.80;53.10;;;;;;4445813;32;20519;-67
2022/03/28 12:04:28;;;;;;;6.72;2.78;;;19.80;53.80;;;;;;4431798;32;20086;-67
2022/03/28 12:06:54;;;;;;;13.18;3.33;;;19.70;52.60;;;;;;4445594;32;20074;-66
2022/03/28 12:09:21;;;;;;;7.68;3.15;;;19.70;52.00;;;;;;4445559;32;20093;-67
2022/03/28 12:11:49;;;;;;;14.32;2.80;;;19.60;51.70;;;;;;4445942;32;20074;-67
2022/03/28 12:14:16;;;;;;;6.10;2.55;;;19.60;51.50;;;;;;4445692;32;20167;-67
2022/03/28 12:16:49;;;;;;;12.10;3.42;;;19.50;51.40;;;;;;4445552;32;20081;-67
2022/03/28 12:19:17;;;;;;;8.02;2.28;;;19.50;51.40;;;;;;4432330;32;20496;-67
2022/03/28 12:21:43;;;;;;;7.40;2.58;;;19.50;51.60;;;;;;4445960;32;20070;-66
2022/03/28 12:24:09;;;;;;;6.60;2.22;;;19.50;51.60;;;;;;4445691;32;20604;-67
2022/03/28 12:26:46;;;;;;;5.22;2.30;;;19.40;51.70;;;;;;4445472;32;20074;-66
2022/03/28 12:29:12;;;;;;;6.22;2.05;;;19.40;51.70;;;;;;4445596;32;20534;-67
2022/03/28 12:31:48;;;;;;;5.15;1.88;;;19.40;51.90;;;;;;4444161;32;20114;-67
2022/03/28 12:34:17;;;;;;;8.02;2.50;;;19.40;52.00;;;;;;4445240;32;20082;-67
2022/03/28 12:36:43;;;;;;;12.95;2.38;;;19.40;52.10;;;;;;4444130;32;20094;-67
2022/03/28 12:39:10;;;;;;;5.90;2.00;;;19.40;52.20;;;;;;4445469;32;20101;-67
2022/03/28 12:41:40;;;;;;;3.55;1.80;;;19.30;52.20;;;;;;4444230;32;20090;-67
2022/03/28 12:44:15;;;;;;;3.88;2.00;;;19.30;52.30;;;;;;4445587;32;20090;-67
2022/03/28 12:46:41;;;;;;;8.38;1.90;;;19.30;52.50;;;;;;4445509;32;20089;-67
2022/03/28 12:49:16;;;;;;;4.93;2.00;;;19.30;52.60;;;;;;4445452;32;20074;-66
2022/03/28 12:51:43;;;;;;;4.22;2.45;;;19.30;53.70;;;;;;4445558;32;20089;-66
2022/03/28 12:54:20;;;;;;;4.25;2.10;;;19.30;52.80;;;;;;4445179;32;20271;-67
2022/03/28 12:56:50;;;;;;;6.32;2.10;;;19.20;52.90;;;;;;4445221;32;20511;-66